Stepps, United Kingdom
Current Conditions -  °F | °C
As of 12:20 AM on Monday 26 Jan 2015 (Local Time) from EGPF Reporting Station
Broken Clouds Broken Clouds  
Wind Chill: 38°   Ceiling: 4100
Heat Index: 43°   Visibility: 6mi
Dew Point: 41°   Wind: 8mph
Humidity: 93%   Direction: 230°SW
Pressure: 30"   Gusts: NA
Location:  55.89°N, 4.15°W
Report Text: EGPF 260020Z AUTO 23007KT 9999 BKN041 06/05 Q1016
Loading
Personal Weather Stations






























Interactive Weather Map New forecast layout! Learn more

10-Day Weather Forecast

Advertisements
Track Severe Weather on mobile